Charis — PPPPPPP — position and weather

sailwx.info

Track history (hours):
 
Tides and Currents Weather Stations Pressure Air Temp Water Temp Dewpoint Dewpoint Depression Visibility Wind Speed Wind Dir Waves Ship Positions

Charis

Last reported at 2018-Apr-21 19:16 UTC. Time now 2018-Apr-26 19:18 UTC.
Position N 31°40' E 121°12'.

Length 146 m.

Type: Sailing vessel. MMSI: 338139992.

Date/timePositionNaut miles runAvg speedWind from/ knotsBaromVisibWave heightAir tempDewpointWater temp
2018-Apr-21 19:16N 31°40' E 121°12'2 7.4
2018-Apr-21 18:57N 31°39' E 121°15'3 7.1
2018-Apr-21 18:30N 31°36' E 121°17'3 6.8
2018-Apr-21 18:00N 31°34' E 121°20'3 6.5
2018-Apr-21 17:29N 31°32' E 121°23'9715200.1
2018-Apr-19 16:57N 38°50' W 076°32'97103177.0
2018-Apr-19 13:53N 31°34' E 121°19'3 7.4
2018-Apr-19 13:30N 31°36' E 121°17'5 8.1
2018-Apr-19 12:55N 31°39' E 121°13'9699393.8
2018-Apr-18 12:18N 38°50' W 076°32'0 0.0
2018-Apr-18 10:12N 38°50' W 076°32'0 0.0
2018-Apr-18 08:18N 38°50' W 076°32'0 0.0
2018-Apr-18 08:00N 38°50' W 076°32'0 0.0
2018-Apr-18 02:24N 38°50' W 076°32'0 0.0
2018-Apr-18 00:35N 38°50' W 076°32'0 0.0
2018-Apr-18 00:24N 38°50' W 076°32'0 0.0
2018-Apr-17 23:59N 38°50' W 076°32'0 0.0
2018-Apr-17 21:00N 38°50' W 076°32'0 0.0
2018-Apr-17 20:24N 38°50' W 076°32'0 0.0
2018-Apr-17 18:18N 38°50' W 076°32'0 0.0
2018-Apr-17 16:24N 38°50' W 076°32'0 0.0
2018-Apr-17 14:06N 38°50' W 076°32'0 0.0
2018-Apr-17 10:18N 38°50' W 076°32'0 0.0
2018-Apr-17 09:06N 38°50' W 076°32'0 0.0
2018-Apr-17 08:54N 38°50' W 076°32'0 0.0
2018-Apr-17 08:30N 38°50' W 076°32'0 0.0
2018-Apr-17 07:48N 38°50' W 076°32'0 0.0
2018-Apr-17 07:18N 38°50' W 076°32'0 0.0
2018-Apr-16 22:00N 38°50' W 076°32'0 0.0
2018-Apr-16 21:30N 38°50' W 076°32'0 0.0
2018-Apr-16 20:48N 38°50' W 076°32'0 0.0
2018-Apr-16 20:30N 38°50' W 076°32'0 0.0
2018-Apr-16 19:57N 38°50' W 076°32'0 0.0
2018-Apr-16 18:36N 38°50' W 076°32'0 0.0
2018-Apr-16 18:27N 38°50' W 076°32'0 0.0
2018-Apr-16 02:18N 38°50' W 076°32'9641313.9
2018-Apr-14 19:35N 31°58' E 120°26'0 1.8
2018-Apr-14 19:28N 31°58' E 120°26'0 0.0
2018-Apr-14 18:58N 31°58' E 120°26'0 0.0
2018-Apr-14 18:29N 31°58' E 120°26'0 0.0
2018-Apr-14 17:55N 31°58' E 120°26'0 0.0
2018-Apr-14 16:46N 31°58' E 120°26'0 0.0
2018-Apr-14 16:21N 31°58' E 120°26'0 0.0
2018-Apr-14 15:38N 31°58' E 120°26'0 0.0
2018-Apr-14 15:23N 31°58' E 120°26'0 0.4
2018-Apr-14 14:59N 31°58' E 120°26'1 0.9
2018-Apr-14 14:19N 31°59' E 120°27'0 0.2
2018-Apr-14 13:58N 31°59' E 120°27'0 0.8
2018-Apr-14 13:28N 31°59' E 120°27'52 4.7
2018-Apr-14 02:26N 31°33' E 121°20'  
2018-Apr-11 21:22N 31°34' E 121°18'3 7.4
2018-Apr-11 20:57N 31°36' E 121°16'4 7.7
2018-Apr-11 20:29N 31°39' E 121°13'  
Track history (hours):
 
Tides and Currents Weather Stations Pressure Air Temp Water Temp Dewpoint Dewpoint Depression Visibility Wind Speed Wind Dir Waves Ship Positions

Charis

Last reported at 2018-Apr-21 19:16 UTC. Time now 2018-Apr-26 19:18 UTC.
Position N 31°40' E 121°12'.

Length 146 m.

Type: Sailing vessel. MMSI: 338139992.

Date/timePositionNaut miles runAvg speedWind from/ knotsBaromVisibWave heightAir tempDewpointWater temp
2018-Apr-21 19:16N 31°40' E 121°12'2 7.4
2018-Apr-21 18:57N 31°39' E 121°15'3 7.1
2018-Apr-21 18:30N 31°36' E 121°17'3 6.8
2018-Apr-21 18:00N 31°34' E 121°20'3 6.5
2018-Apr-21 17:29N 31°32' E 121°23'9715200.1
2018-Apr-19 16:57N 38°50' W 076°32'97103177.0
2018-Apr-19 13:53N 31°34' E 121°19'3 7.4
2018-Apr-19 13:30N 31°36' E 121°17'5 8.1
2018-Apr-19 12:55N 31°39' E 121°13'9699393.8
2018-Apr-18 12:18N 38°50' W 076°32'0 0.0
2018-Apr-18 10:12N 38°50' W 076°32'0 0.0
2018-Apr-18 08:18N 38°50' W 076°32'0 0.0
2018-Apr-18 08:00N 38°50' W 076°32'0 0.0
2018-Apr-18 02:24N 38°50' W 076°32'0 0.0
2018-Apr-18 00:35N 38°50' W 076°32'0 0.0
2018-Apr-18 00:24N 38°50' W 076°32'0 0.0
2018-Apr-17 23:59N 38°50' W 076°32'0 0.0
2018-Apr-17 21:00N 38°50' W 076°32'0 0.0
2018-Apr-17 20:24N 38°50' W 076°32'0 0.0
2018-Apr-17 18:18N 38°50' W 076°32'0 0.0
2018-Apr-17 16:24N 38°50' W 076°32'0 0.0
2018-Apr-17 14:06N 38°50' W 076°32'0 0.0
2018-Apr-17 10:18N 38°50' W 076°32'0 0.0
2018-Apr-17 09:06N 38°50' W 076°32'0 0.0
2018-Apr-17 08:54N 38°50' W 076°32'0 0.0
2018-Apr-17 08:30N 38°50' W 076°32'0 0.0
2018-Apr-17 07:48N 38°50' W 076°32'0 0.0
2018-Apr-17 07:18N 38°50' W 076°32'0 0.0
2018-Apr-16 22:00N 38°50' W 076°32'0 0.0
2018-Apr-16 21:30N 38°50' W 076°32'0 0.0
2018-Apr-16 20:48N 38°50' W 076°32'0 0.0
2018-Apr-16 20:30N 38°50' W 076°32'0 0.0
2018-Apr-16 19:57N 38°50' W 076°32'0 0.0
2018-Apr-16 18:36N 38°50' W 076°32'0 0.0
2018-Apr-16 18:27N 38°50' W 076°32'0 0.0
2018-Apr-16 02:18N 38°50' W 076°32'9641313.9
2018-Apr-14 19:35N 31°58' E 120°26'0 1.8
2018-Apr-14 19:28N 31°58' E 120°26'0 0.0
2018-Apr-14 18:58N 31°58' E 120°26'0 0.0
2018-Apr-14 18:29N 31°58' E 120°26'0 0.0
2018-Apr-14 17:55N 31°58' E 120°26'0 0.0
2018-Apr-14 16:46N 31°58' E 120°26'0 0.0
2018-Apr-14 16:21N 31°58' E 120°26'0 0.0
2018-Apr-14 15:38N 31°58' E 120°26'0 0.0
2018-Apr-14 15:23N 31°58' E 120°26'0 0.4
2018-Apr-14 14:59N 31°58' E 120°26'1 0.9
2018-Apr-14 14:19N 31°59' E 120°27'0 0.2
2018-Apr-14 13:58N 31°59' E 120°27'0 0.8
2018-Apr-14 13:28N 31°59' E 120°27'52 4.7
2018-Apr-14 02:26N 31°33' E 121°20'  
2018-Apr-11 21:22N 31°34' E 121°18'3 7.4
2018-Apr-11 20:57N 31°36' E 121°16'4 7.7
2018-Apr-11 20:29N 31°39' E 121°13'  

Dump ship's entire track history